Guapimirim, Brazil
Current Conditions -  °F | °C
As of 1:00 AM on Friday 21 Nov 2014 (Local Time) from SBGL Reporting Station
Clear Clear  
Wind Chill: 72°   Ceiling: Unl
Heat Index: 72°   Visibility: 6mi
Dew Point: 57°   Wind: 3mph
Humidity: 60%   Direction: 140°SE
Pressure: 29.97"   Gusts: NA
Location:  22.54°S, 42.98°W
Report Text: SBGL 210300Z 14003KT CAVOK 22/14 Q1015
Loading
Personal Weather Stations






























Interactive Weather Map New forecast layout! Learn more

10-Day Weather Forecast

Advertisements
Track Severe Weather on mobile